Fort Dearborn, Illinois
Current Conditions -  °F | °C
As of 7:53 PM on Friday 21 Nov 2014 (Local Time) from KMDW Reporting Station
Broken Clouds Broken Clouds  
Wind Chill: 23°   Ceiling: 25000
Heat Index: 31°   Visibility: 10mi
Dew Point: 11°   Wind: 9mph
Humidity: 43%   Direction: 180°S
Pressure: 30.29"   Gusts: NA
Location:  41.8946°N, 87.6187°W
Report Text: KMDW 220153Z 18008KT 10SM SCT200 BKN250 M01/M12 A3029 RMK AO2 SLP272 T10061117
Loading
Personal Weather Stations






























Interactive Weather Map New forecast layout! Learn more

10-Day Weather Forecast

Advertisements
Track Severe Weather on mobile